Terminal Aerodrome Forecast
Issued by NWS

Home | Current Version | Previous Version | Text Only | Print | Product List | Glossary On
Versions: 1 2 3 4 5 6 7 8 9 10 11 12 13 14 15 16 17 18 19 20 21 22 23 24 25
000
FTUS43 KDLH 021700 RRA
TAFHYR
TAF
KHYR 021742Z 0218/0318 21010KT P6SM SKC
     FM030200 17009KT P6SM BKN120
     FM030900 16006KT 4SM -SN BKN025 OVC040
     FM031100 18008KT 1 1/2SM -SN OVC015=

USA.gov is the U.S. government's official web portal to all federal, state and local government web resources and services.